Terminal Aerodrome Forecast
Issued by NWS Denver/Boulder, CO

Home | Current Version | Previous Version | Text Only | Print | Product List | Glossary On
Versions: 1 2 3 4 5 6 7 8 9 10 11 12 13 14 15 16 17 18 19 20 21 22 23 24 25 26 27 28 29 30 31 32 33 34 35 36 37 38 39 40 41 42 43 44 45 46 47 48 49 50
238
FTUS45 KBOU 160855 AAA
TAFDEN
TAF AMD
KDEN 160855Z 1609/1712 19009KT P6SM SCT140 BKN200
     FM161400 14007KT P6SM SCT140 BKN180
     FM161600 05010KT P6SM SCT140 BKN180
     FM162000 05008KT P6SM SCT120 BKN180
     FM170100 07008KT P6SM FEW080 BKN140
     FM170400 08007KT P6SM VCSH SCT045 BKN060 OVC080
     FM170600 08007KT P6SM SCT008 BKN014
     FM170800 08006KT 4SM BR BKN005 OVC008 PROB30 1708/1712 1SM
      -FZDZSN BR OVC003=

USA.gov is the U.S. government's official web portal to all federal, state and local government web resources and services.